Time;durP1;ratioP1;P1;durP2;ratioP2;P2;SDS_P1;SDS_P2;PMS_P1;PMS_P2;Temp;Humidity;BMP_temperature;BMP_pressure;BME280_temperature;BME280_humidity;BME280_pressure;Samples;Min_cycle;Max_cycle;Signal;HPM_P1;HPM_P2
2022/09/25 00:01:24;;;;;;;19.27;3.92;;;13.30;99.90;;;13.23;100.00;100471.84;4993557;28;20200;-81
2022/09/25 00:03:52;;;;;;;21.38;4.35;;;13.30;99.90;;;13.22;100.00;100472.72;4993974;28;20227;-81
2022/09/25 00:06:24;;;;;;;27.38;5.53;;;13.30;99.90;;;13.14;100.00;100473.56;4993238;28;20205;-82
2022/09/25 00:08:52;;;;;;;19.40;3.85;;;13.30;99.90;;;13.16;100.00;100473.56;4991994;28;20216;-81
2022/09/25 00:11:31;;;;;;;19.27;3.88;;;13.30;99.90;;;13.15;100.00;100474.47;4998034;28;20208;-81
2022/09/25 00:14:00;;;;;;;17.92;3.60;;;13.30;99.90;;;13.13;100.00;100495.72;5001402;28;20220;-80
2022/09/25 00:16:31;;;;;;;18.75;3.83;;;13.20;99.90;;;13.11;100.00;100481.56;4995472;28;20236;-80
2022/09/25 00:21:52;;;;;;;14.00;3.03;;;13.20;99.90;;;13.07;100.00;100482.44;5005089;28;20207;-80
2022/09/25 00:24:21;;;;;;;16.05;3.33;;;13.20;99.90;;;13.10;100.00;100485.09;4999711;28;20278;-80
2022/09/25 00:26:49;;;;;;;19.27;4.15;;;13.20;99.90;;;13.13;100.00;100477.13;4998353;28;20219;-80
2022/09/25 00:29:19;;;;;;;15.45;3.20;;;13.20;99.90;;;13.12;100.00;100475.34;4994309;28;20219;-80
2022/09/25 00:31:47;;;;;;;25.67;5.18;;;13.20;99.90;;;13.09;100.00;100478.00;4993346;28;20205;-80
2022/09/25 00:34:15;;;;;;;25.50;5.53;;;13.20;99.90;;;13.10;100.00;100478.91;4987234;28;20236;-80
2022/09/25 00:36:43;;;;;;;27.98;5.63;;;13.20;99.90;;;13.08;100.00;100478.00;4986456;28;20243;-80
2022/09/25 00:39:11;;;;;;;31.02;6.10;;;13.20;99.90;;;13.04;100.00;100477.13;4975966;28;20201;-80
2022/09/25 00:41:38;;;;;;;21.52;4.40;;;13.10;99.90;;;13.06;100.00;100478.00;4987097;28;20231;-80
2022/09/25 00:44:57;;;;;;;27.35;5.43;;;13.20;99.90;;;13.06;100.00;100470.03;4987969;28;20229;-80
2022/09/25 00:47:52;;;;;;;21.30;4.43;;;13.20;99.90;;;13.06;100.00;100474.47;4988520;28;20235;-80
2022/09/25 00:50:39;;;;;;;21.25;4.35;;;13.20;99.90;;;13.02;100.00;100470.03;4988655;28;20208;-80
2022/09/25 00:53:20;;;;;;;22.02;4.50;;;13.10;99.90;;;13.02;100.00;100472.69;4976413;28;20216;-80
2022/09/25 00:55:48;;;;;;;27.35;5.35;;;13.10;99.90;;;13.00;100.00;100485.97;4973138;28;20212;-80
2022/09/25 00:58:21;;;;;;;25.08;5.05;;;13.10;99.90;;;12.99;100.00;100480.63;4988155;28;20235;-80
2022/09/25 01:00:51;;;;;;;23.17;4.65;;;13.10;99.90;;;13.00;100.00;100491.28;4974060;28;20219;-80
2022/09/25 01:03:20;;;;;;;29.00;5.85;;;13.10;99.90;;;13.00;100.00;100496.59;4980068;28;20215;-81
2022/09/25 01:05:48;;;;;;;24.92;4.93;;;13.00;99.90;;;13.00;100.00;100493.94;4977867;28;20208;-80
2022/09/25 01:08:22;;;;;;;18.90;3.92;;;13.10;99.90;;;13.00;100.00;100493.03;4980813;28;20220;-80
2022/09/25 01:10:50;;;;;;;26.27;5.15;;;13.10;99.90;;;12.98;100.00;100485.06;4966085;28;20235;-80
2022/09/25 01:13:19;;;;;;;21.98;4.38;;;13.10;99.90;;;12.99;100.00;100492.13;4994646;28;20672;-80
2022/09/25 01:16:18;;;;;;;27.00;5.43;;;13.10;99.90;;;13.00;100.00;100491.28;4992128;28;20301;-80
2022/09/25 01:19:11;;;;;;;22.48;4.50;;;13.10;99.90;;;13.01;100.00;100489.50;4973483;28;20247;-80
2022/09/25 01:21:51;;;;;;;26.00;5.18;;;13.10;99.90;;;12.99;100.00;100480.63;4975731;28;20208;-80
2022/09/25 01:24:54;;;;;;;24.73;4.90;;;13.00;99.90;;;12.99;100.00;100472.66;4975188;28;20702;-80
2022/09/25 01:27:51;;;;;;;20.67;4.18;;;13.10;99.90;;;13.03;100.00;100479.78;4992331;28;20223;-80
2022/09/25 01:30:19;;;;;;;23.38;4.63;;;13.10;99.90;;;12.98;100.00;100476.22;4979162;28;20251;-80
2022/09/25 01:33:15;;;;;;;19.75;4.10;;;13.10;99.90;;;13.02;100.00;100481.56;4994419;28;20200;-80
2022/09/25 01:36:03;;;;;;;21.40;4.47;;;13.10;99.90;;;13.00;100.00;100488.63;4985556;28;20212;-80
2022/09/25 01:38:52;;;;;;;26.67;5.40;;;13.10;99.90;;;12.98;100.00;100479.75;4961988;28;20243;-80
2022/09/25 01:41:51;;;;;;;24.30;4.95;;;13.00;99.90;;;12.92;100.00;100470.91;4986163;28;20213;-80
2022/09/25 01:44:26;;;;;;;26.27;5.40;;;13.00;99.90;;;12.88;100.00;100464.72;4990579;28;20231;-80
2022/09/25 01:47:02;;;;;;;27.67;5.55;;;13.00;99.90;;;12.91;100.00;100477.97;4994074;28;20227;-81
2022/09/25 01:49:41;;;;;;;22.50;4.72;;;13.00;99.90;;;12.87;100.00;100470.91;4991642;28;20208;-81
2022/09/25 01:52:16;;;;;;;22.08;4.55;;;14.10;99.90;;;12.87;100.00;100465.59;4974464;28;20212;-80
2022/09/25 01:54:54;;;;;;;21.27;4.30;;;12.90;99.90;;;12.86;100.00;100465.59;4994994;28;20231;-80
2022/09/25 01:57:52;;;;;;;27.38;5.53;;;13.00;99.90;;;12.89;100.00;100461.16;4973891;28;20238;-80
2022/09/25 02:00:22;;;;;;;25.02;5.10;;;13.00;99.90;;;12.85;100.00;100454.09;4976512;28;20591;-80
2022/09/25 02:03:06;;;;;;;28.05;5.68;;;13.00;99.90;;;12.89;100.00;100461.16;4980840;28;20220;-80
2022/09/25 02:05:47;;;;;;;25.88;5.25;;;12.90;99.90;;;12.83;100.00;100455.84;4966501;28;20223;-81
2022/09/25 02:08:29;;;;;;;26.63;5.40;;;12.90;99.90;;;12.80;100.00;100458.50;4976157;28;20207;-80
2022/09/25 02:11:01;;;;;;;24.52;5.05;;;12.90;99.90;;;12.80;100.00;100459.41;4980985;28;20631;-80
2022/09/25 02:14:01;;;;;;;24.77;5.10;;;12.80;99.90;;;12.79;100.00;100468.25;4980465;28;20204;-80
2022/09/25 02:16:42;;;;;;;24.23;4.78;;;12.80;99.90;;;12.77;100.00;100469.13;4974494;28;20223;-80
2022/09/25 02:22:33;;;;;;;26.55;5.40;;;12.90;99.90;;;12.81;100.00;100477.09;4979123;28;20696;-80
2022/09/25 02:25:16;;;;;;;22.08;4.82;;;12.90;99.90;;;12.76;100.00;100484.16;4987158;28;20243;-80
2022/09/25 02:27:45;;;;;;;27.55;5.60;;;12.90;99.90;;;12.72;100.00;100486.81;4973771;28;20207;-80
2022/09/25 02:30:13;;;;;;;29.13;6.13;;;12.80;99.90;;;12.75;100.00;100500.97;4970936;28;20661;-80
2022/09/25 02:32:41;;;;;;;23.92;4.82;;;12.90;99.90;;;12.73;100.00;100507.16;4988907;28;20201;-80
2022/09/25 02:35:09;;;;;;;30.38;6.13;;;12.90;99.90;;;12.71;100.00;100501.84;4973189;28;20231;-80
2022/09/25 02:37:37;;;;;;;22.60;4.68;;;12.80;99.90;;;12.69;100.00;100500.06;4973533;28;20236;-81
2022/09/25 02:40:06;;;;;;;29.52;6.07;;;12.80;99.90;;;12.65;100.00;100504.50;4961455;28;20208;-81
2022/09/25 02:42:59;;;;;;;23.65;4.90;;;12.80;99.90;;;12.64;100.00;100502.72;4990478;28;20219;-81
2022/09/25 02:45:48;;;;;;;23.05;4.80;;;12.80;99.90;;;12.67;100.00;100507.16;4991116;28;20278;-81
2022/09/25 02:48:33;;;;;;;20.08;4.15;;;12.70;99.90;;;12.62;100.00;100503.59;4989584;28;20251;-81
2022/09/25 02:51:18;;;;;;;25.40;5.25;;;12.70;99.90;;;12.61;100.00;100508.03;4987300;28;20207;-81
2022/09/25 02:54:07;;;;;;;17.25;3.58;;;12.70;99.90;;;12.62;100.00;100515.09;4991806;28;20220;-81
2022/09/25 02:56:43;;;;;;;22.00;4.47;;;12.70;99.90;;;12.56;100.00;100506.25;4991384;28;20204;-81
2022/09/25 02:59:24;;;;;;;32.75;6.53;;;12.70;99.90;;;12.56;100.00;100512.44;4975363;28;20232;-81
2022/09/25 03:01:53;;;;;;;26.60;5.45;;;12.60;99.90;;;12.55;100.00;100513.31;4958608;28;20219;-80
2022/09/25 03:04:22;;;;;;;22.92;4.72;;;12.60;99.90;;;12.55;100.00;100518.63;4975190;28;20222;-81
2022/09/25 03:06:51;;;;;;;25.83;5.30;;;12.60;99.90;;;12.59;100.00;100522.16;4981165;28;20223;-81
2022/09/25 03:09:21;;;;;;;22.27;4.53;;;12.60;99.90;;;12.58;100.00;100521.28;4991864;28;20208;-80
2022/09/25 03:11:51;;;;;;;21.20;4.35;;;13.20;99.90;;;12.58;100.00;100515.97;4975891;28;20293;-81
2022/09/25 03:14:19;;;;;;;25.17;5.20;;;12.70;99.90;;;12.56;100.00;100527.47;4992496;28;20243;-81
2022/09/25 03:16:59;;;;;;;25.63;5.20;;;12.70;99.90;;;12.55;100.00;100517.75;4991406;28;20220;-81
2022/09/25 03:19:32;;;;;;;20.35;4.22;;;12.60;99.90;;;12.52;100.00;100521.28;4975718;28;20227;-81
2022/09/25 03:22:01;;;;;;;24.90;5.03;;;12.60;99.90;;;12.52;100.00;100521.28;4992688;28;20207;-81
2022/09/25 03:24:30;;;;;;;24.33;4.97;;;12.60;99.90;;;12.50;100.00;100518.63;4992538;28;20239;-81
2022/09/25 03:26:58;;;;;;;26.02;5.28;;;12.60;99.90;;;12.52;100.00;100523.94;4996541;28;20217;-81
2022/09/25 03:29:26;;;;;;;25.70;5.15;;;12.60;99.90;;;12.53;100.00;100522.16;4992920;28;20205;-81
2022/09/25 03:31:54;;;;;;;17.98;3.75;;;12.60;99.90;;;12.53;100.00;100523.03;4990199;28;20212;-81
2022/09/25 03:34:22;;;;;;;19.88;4.05;;;12.60;99.90;;;12.49;100.00;100524.81;4994993;28;20232;-81
2022/09/25 03:36:50;;;;;;;18.70;3.85;;;12.60;99.90;;;12.51;100.00;100527.47;4972191;28;20212;-80
2022/09/25 03:39:17;;;;;;;23.05;4.90;;;12.60;99.90;;;12.51;100.00;100527.47;4975253;28;20768;-81
2022/09/25 03:41:46;;;;;;;23.02;4.88;;;12.60;99.90;;;12.47;100.00;100530.97;4987586;28;20204;-81
2022/09/25 03:44:14;;;;;;;24.67;5.30;;;12.60;99.90;;;12.50;100.00;100531.00;4990183;28;20236;-80
2022/09/25 03:46:42;;;;;;;23.60;5.10;;;12.60;99.90;;;12.50;100.00;100526.56;4989626;28;20214;-81
2022/09/25 03:49:11;;;;;;;19.23;4.15;;;12.60;99.90;;;12.45;100.00;100528.31;4994856;28;20216;-81
2022/09/25 03:51:40;;;;;;;19.52;4.30;;;12.50;99.90;;;12.39;100.00;100528.31;4992535;28;20208;-81
2022/09/25 03:54:08;;;;;;;19.85;4.35;;;12.50;99.90;;;12.44;100.00;100528.31;4992159;28;20236;-80
2022/09/25 03:56:37;;;;;;;21.73;4.90;;;12.50;99.90;;;12.38;100.00;100530.94;4995969;28;20204;-81
2022/09/25 03:59:05;;;;;;;16.02;3.75;;;12.50;99.90;;;12.42;100.00;100528.31;4992563;28;20260;-81
2022/09/25 04:01:33;;;;;;;19.80;4.47;;;12.50;99.90;;;12.44;100.00;100542.47;4996874;28;20211;-81
2022/09/25 04:04:02;;;;;;;19.50;4.40;;;12.50;99.90;;;12.37;100.00;100535.38;4993945;28;20236;-81
2022/09/25 04:06:30;;;;;;;17.52;4.03;;;12.50;99.90;;;12.37;100.00;100543.34;4994012;28;20213;-81
2022/09/25 04:08:57;;;;;;;18.77;4.32;;;12.50;99.90;;;12.30;100.00;100530.94;4995659;28;20205;-82
2022/09/25 04:11:26;;;;;;;17.55;3.88;;;;;;;12.39;100.00;100546.88;4979640;28;20216;-81
2022/09/25 04:13:55;;;;;;;21.85;4.75;;;12.50;99.90;;;12.33;100.00;100538.00;4980066;28;20220;-81
2022/09/25 04:16:23;;;;;;;11.98;2.80;;;12.50;99.90;;;12.31;100.00;100537.13;5000548;28;20676;-81
2022/09/25 04:18:51;;;;;;;18.70;4.13;;;12.50;99.90;;;12.32;100.00;100545.09;4994848;28;20247;-81
2022/09/25 04:21:19;;;;;;;22.30;4.97;;;12.40;99.90;;;12.34;100.00;100540.66;4994978;28;20219;-82
2022/09/25 04:26:35;;;;;;;10.85;2.38;;;12.50;99.90;;;12.36;100.00;100564.53;4961746;28;20208;-81
2022/09/25 04:29:03;;;;;;;16.92;3.55;;;12.50;99.90;;;12.31;100.00;100559.22;4997073;28;20205;-82
2022/09/25 04:31:31;;;;;;;16.95;3.63;;;12.50;99.90;;;12.29;100.00;100560.09;5003854;28;20208;-81
2022/09/25 04:34:01;;;;;;;16.52;3.65;;;12.40;99.90;;;12.32;100.00;100576.03;4999104;28;20236;-82
2022/09/25 04:36:29;;;;;;;18.90;4.07;;;12.40;99.90;;;12.29;100.00;100568.03;5007521;28;20211;-81
2022/09/25 04:38:57;;;;;;;22.67;4.70;;;12.40;99.90;;;12.34;100.00;100577.78;4988996;28;20231;-81
2022/09/25 04:41:25;;;;;;;17.98;3.72;;;12.40;99.90;;;12.30;100.00;100568.06;5002086;28;20244;-81
2022/09/25 04:43:53;;;;;;;17.55;3.75;;;12.40;99.90;;;12.32;100.00;100574.25;5001886;28;20232;-82
2022/09/25 04:46:21;;;;;;;13.18;2.83;;;12.40;99.90;;;12.31;100.00;100574.25;5009454;28;20575;-81
2022/09/25 04:48:49;;;;;;;16.13;3.47;;;12.40;99.90;;;12.33;100.00;100583.97;5007694;28;20227;-81
2022/09/25 04:51:18;;;;;;;12.75;2.75;;;;;;;12.31;100.00;100584.84;4996941;28;20557;-81
2022/09/25 04:53:46;;;;;;;13.02;2.70;;;;;;;12.32;100.00;100584.84;5009997;28;20220;-81
2022/09/25 04:56:15;;;;;;;17.42;3.72;;;;;;;12.41;100.00;100591.97;4990060;28;20212;-82
2022/09/25 04:58:48;;;;;;;9.32;2.15;;;12.50;99.90;;;12.34;100.00;100584.88;4991559;28;20639;-81
2022/09/25 05:01:19;;;;;;;14.43;3.10;;;12.50;99.90;;;12.35;100.00;100586.63;4998205;28;20216;-81
2022/09/25 05:03:49;;;;;;;20.17;4.28;;;12.50;99.90;;;12.31;100.00;100591.03;5009408;28;20226;-82
2022/09/25 05:06:18;;;;;;;16.65;3.55;;;12.40;99.90;;;12.36;100.00;100593.72;5000549;28;20216;-82
2022/09/25 05:08:48;;;;;;;28.60;5.78;;;12.50;99.90;;;12.37;100.00;100599.03;4999670;28;20209;-81
2022/09/25 05:11:17;;;;;;;14.45;2.95;;;12.50;99.90;;;12.30;100.00;100599.88;4992597;28;20215;-81
2022/09/25 05:13:51;;;;;;;15.60;3.20;;;12.40;99.90;;;12.33;100.00;100602.53;5002473;28;20244;-82
2022/09/25 05:16:34;;;;;;;15.68;3.15;;;12.40;99.90;;;12.31;100.00;100599.00;4993652;28;20219;-82
2022/09/25 05:19:02;;;;;;;14.13;2.85;;;12.40;99.90;;;12.36;100.00;100604.31;4998188;28;20231;-82
2022/09/25 05:21:31;;;;;;;15.55;3.10;;;12.40;99.90;;;12.32;100.00;100611.38;5004764;28;20695;-82
2022/09/25 05:23:59;;;;;;;21.58;4.30;;;12.50;99.90;;;12.34;100.00;100600.78;4973681;28;20224;-82
2022/09/25 05:26:29;;;;;;;17.05;3.40;;;12.50;99.90;;;12.29;100.00;100602.53;4991874;28;20224;-83
2022/09/25 05:28:56;;;;;;;14.95;3.17;;;12.40;99.90;;;12.33;100.00;100610.50;4991906;28;20219;-82
2022/09/25 05:31:24;;;;;;;18.27;3.78;;;12.40;99.90;;;12.25;100.00;100600.72;5004962;28;20200;-82
2022/09/25 05:33:53;;;;;;;17.60;3.55;;;12.40;99.90;;;12.26;100.00;100608.69;5006884;28;20228;-82
2022/09/25 05:36:21;;;;;;;16.48;3.42;;;12.40;99.90;;;12.29;100.00;100610.47;5008712;28;20207;-82
2022/09/25 05:38:49;;;;;;;16.65;3.42;;;12.40;99.90;;;12.32;100.00;100613.16;5010783;28;20223;-81
2022/09/25 05:41:17;;;;;;;15.48;3.22;;;12.40;99.90;;;12.30;100.00;100605.19;4987016;28;20654;-80
2022/09/25 05:43:46;;;;;;;14.90;3.10;;;12.40;99.90;;;12.33;100.00;100612.25;5006289;28;20231;-81
2022/09/25 05:46:15;;;;;;;13.70;2.92;;;12.40;99.90;;;12.31;100.00;100609.59;5011643;28;20204;-78
2022/09/25 05:48:43;;;;;;;15.25;3.25;;;12.40;99.90;;;12.31;100.00;100606.06;5003869;28;20215;-79
2022/09/25 05:51:11;;;;;;;23.35;4.75;;;12.40;99.90;;;12.40;100.00;100617.59;5007059;28;20212;-78
2022/09/25 05:53:39;;;;;;;20.70;4.20;;;12.40;99.90;;;12.38;100.00;100607.88;5009785;28;20224;-80
2022/09/25 05:56:07;;;;;;;19.27;4.00;;;12.50;99.90;;;12.32;100.00;100613.16;5010782;28;20207;-79
2022/09/25 05:58:36;;;;;;;22.65;4.57;;;12.40;99.90;;;12.34;100.00;100606.09;5004274;28;20208;-79
2022/09/25 06:01:05;;;;;;;19.20;3.97;;;12.40;99.90;;;12.34;100.00;100614.03;5005646;28;20240;-80
2022/09/25 06:03:34;;;;;;;28.77;5.80;;;12.40;99.90;;;12.36;100.00;100626.41;4998200;28;20215;-80
2022/09/25 06:06:03;;;;;;;16.75;3.45;;;12.40;99.90;;;12.38;100.00;100624.66;5000652;28;20215;-80
2022/09/25 06:11:34;;;;;;;24.30;4.97;;;12.50;99.90;;;12.35;100.00;100621.13;5032790;28;20218;-70
2022/09/25 06:14:02;;;;;;;47.20;10.07;;;12.50;99.90;;;12.37;100.00;100622.88;4970303;28;20227;-71
2022/09/25 06:16:30;;;;;;;27.58;5.88;;;12.50;99.90;;;12.38;100.00;100623.78;4989468;28;20209;-70
2022/09/25 06:19:01;;;;;;;33.17;7.45;;;12.50;99.90;;;12.43;100.00;100625.56;4988175;28;20202;-70
2022/09/25 06:21:36;;;;;;;27.30;5.68;;;12.60;99.90;;;12.42;100.00;100626.44;4973467;28;20203;-71
2022/09/25 06:24:09;;;;;;;36.30;7.55;;;12.50;99.90;;;12.40;100.00;100624.66;5010731;28;20223;-70
2022/09/25 06:26:37;;;;;;;27.02;5.88;;;12.50;99.90;;;12.43;100.00;100638.84;4988246;28;20211;-70
2022/09/25 06:29:07;;;;;;;18.40;4.05;;;12.50;99.90;;;12.42;100.00;100638.81;4975814;28;20226;-70
2022/09/25 06:31:36;;;;;;;33.70;7.35;;;12.50;99.90;;;12.41;100.00;100634.41;4976884;28;20202;-71
2022/09/25 06:34:04;;;;;;;31.80;6.70;;;12.50;99.90;;;12.52;100.00;100643.28;5023451;28;20223;-70
2022/09/25 06:36:32;;;;;;;26.27;5.43;;;12.60;99.90;;;12.43;100.00;100641.50;4994269;28;20207;-70
2022/09/25 06:39:00;;;;;;;16.25;3.65;;;12.50;99.90;;;12.48;100.00;100638.84;5022349;28;20207;-69
2022/09/25 06:41:28;;;;;;;26.88;6.15;;;12.60;99.90;;;12.49;100.00;100641.50;4989046;28;20235;-69
2022/09/25 06:43:56;;;;;;;27.80;6.28;;;12.60;99.90;;;12.50;100.00;100635.31;4977657;28;20238;-69
2022/09/25 06:46:24;;;;;;;42.92;9.63;;;12.60;99.90;;;12.54;100.00;100648.59;4988652;28;20214;-70
2022/09/25 06:48:53;;;;;;;25.25;5.65;;;12.60;99.90;;;12.57;100.00;100652.16;4961519;28;20207;-70
2022/09/25 06:51:23;;;;;;;25.45;6.75;;;12.60;99.90;;;12.63;100.00;100648.66;4987123;28;20206;-70
2022/09/25 06:53:54;;;;;;;22.73;5.03;;;12.70;99.90;;;12.60;100.00;100645.97;4998075;28;20226;-70
2022/09/25 06:56:22;;;;;;;18.15;4.13;;;12.60;99.90;;;12.61;100.00;100647.75;4980474;28;20221;-70
2022/09/25 06:58:50;;;;;;;25.60;5.55;;;12.60;99.90;;;12.61;100.00;100646.00;5023559;28;20214;-70
2022/09/25 07:01:18;;;;;;;27.05;6.00;;;12.70;99.90;;;12.69;100.00;100648.66;4995396;28;20223;-70
2022/09/25 07:03:47;;;;;;;33.17;7.82;;;12.70;99.90;;;12.67;100.00;100640.69;4989018;28;20231;-70
2022/09/25 07:06:20;;;;;;;29.27;6.75;;;12.80;99.90;;;12.68;100.00;100645.13;5000091;28;20218;-71
2022/09/25 07:08:49;;;;;;;25.00;5.95;;;12.70;99.90;;;12.72;100.00;100651.34;5003348;28;20210;-70
2022/09/25 07:11:20;;;;;;;19.33;4.18;;;12.80;99.90;;;12.76;100.00;100648.69;4988898;28;20218;-70
2022/09/25 07:13:51;;;;;;;19.42;4.25;;;12.80;99.90;;;12.79;100.00;100650.47;5007561;28;20246;-70
2022/09/25 07:16:21;;;;;;;27.13;5.82;;;12.80;99.90;;;12.84;100.00;100651.38;4999257;28;20609;-70
2022/09/25 07:18:52;;;;;;;33.83;8.32;;;12.90;99.90;;;12.83;100.00;100650.50;5011258;28;20207;-71
2022/09/25 07:21:23;;;;;;;37.28;8.85;;;12.90;99.90;;;12.88;100.00;100658.47;4993430;28;20244;-71
2022/09/25 07:23:51;;;;;;;19.13;4.22;;;12.90;99.90;;;12.81;100.00;100649.59;5027806;28;20231;-70
2022/09/25 07:26:23;;;;;;;22.50;5.07;;;13.00;99.90;;;12.88;100.00;100661.13;5011762;28;20221;-70
2022/09/25 07:28:57;;;;;;;36.60;8.75;;;13.00;99.90;;;12.94;100.00;100658.47;4985718;28;20207;-70
2022/09/25 07:31:32;;;;;;;30.60;7.10;;;13.00;99.90;;;12.82;100.00;100648.72;4995529;28;20210;-70
2022/09/25 07:34:07;;;;;;;27.67;6.05;;;13.00;99.90;;;12.91;100.00;100653.16;4976573;28;20230;-70
2022/09/25 07:36:41;;;;;;;25.73;5.60;;;13.00;99.90;;;12.97;100.00;100653.19;4979991;28;20237;-70
2022/09/25 07:39:09;;;;;;;47.42;9.80;;;13.00;99.90;;;12.88;100.00;100647.84;5005294;28;20214;-69
2022/09/25 07:41:44;;;;;;;23.52;5.00;;;13.00;99.90;;;12.83;100.00;100629.25;5012199;28;20223;-69
2022/09/25 07:44:16;;;;;;;20.60;4.90;;;12.90;99.90;;;12.90;100.00;100632.81;4956276;28;20231;-69
2022/09/25 07:47:02;;;;;;;27.90;6.60;;;13.00;99.90;;;12.94;100.00;100636.38;4977204;28;20217;-68
2022/09/25 07:49:30;;;;;;;40.67;9.00;;;13.00;99.90;;;12.98;100.00;100627.53;4964051;28;20250;-69
2022/09/25 07:51:58;;;;;;;34.33;8.30;;;13.00;99.90;;;13.01;100.00;100627.56;4984734;28;20207;-68
2022/09/25 07:54:26;;;;;;;31.40;7.53;;;13.00;99.90;;;13.04;100.00;100622.25;4967039;28;20610;-69
2022/09/25 07:56:54;;;;;;;26.05;5.65;;;13.10;99.90;;;13.06;100.00;100620.50;5026563;28;20206;-69
2022/09/25 07:59:22;;;;;;;25.83;5.88;;;13.10;99.90;;;13.06;100.00;100612.53;4978973;28;20211;-68
2022/09/25 08:01:51;;;;;;;24.00;5.30;;;13.20;99.90;;;13.12;100.00;100618.72;4993451;28;20238;-68
2022/09/25 08:04:28;;;;;;;23.55;5.78;;;13.20;99.90;;;13.07;100.00;100614.31;5001557;28;20315;-68
2022/09/25 08:07:09;;;;;;;25.60;5.57;;;13.20;99.90;;;13.07;100.00;100601.91;4996578;28;20228;-68
2022/09/25 08:09:39;;;;;;;22.30;4.90;;;13.20;99.90;;;13.05;100.00;100600.13;4992778;28;20207;-69
2022/09/25 08:12:11;;;;;;;24.25;5.40;;;13.20;99.90;;;13.03;100.00;100592.16;5024799;28;20218;-68
2022/09/25 08:14:40;;;;;;;22.67;5.03;;;13.10;99.90;;;13.10;100.00;100601.03;5008113;28;20231;-69
2022/09/25 08:17:08;;;;;;;21.13;4.60;;;13.20;99.90;;;13.00;100.00;100588.59;4984059;28;20203;-68
2022/09/25 08:19:36;;;;;;;25.55;5.63;;;13.10;99.90;;;12.95;100.00;100579.72;4989300;28;20217;-68
2022/09/25 08:22:04;;;;;;;26.88;6.10;;;13.10;99.90;;;13.05;100.00;100589.53;5005445;28;20238;-68
2022/09/25 08:24:32;;;;;;;24.58;5.40;;;13.10;99.90;;;12.96;100.00;100579.75;4974687;28;20233;-68
2022/09/25 08:27:00;;;;;;;40.80;9.15;;;13.10;99.90;;;12.97;100.00;100570.88;4987616;28;20215;-68
2022/09/25 08:29:48;;;;;;;29.17;6.63;;;13.10;99.90;;;12.91;100.00;100568.22;5013334;28;20207;-67
2022/09/25 08:32:36;;;;;;;29.83;6.45;;;13.10;99.90;;;13.18;100.00;100575.41;5006842;28;20207;-70
2022/09/25 08:35:26;;;;;;;29.88;6.50;;;13.20;99.90;;;13.44;100.00;100543.53;4997829;28;20568;-68
2022/09/25 08:38:15;;;;;;;29.13;6.82;;;13.30;99.90;;;13.44;100.00;100540.88;5002571;28;20665;-68
2022/09/25 08:41:27;;;;;;;31.50;7.50;;;13.40;99.90;;;13.45;100.00;100534.66;5004282;28;20223;-67
2022/09/25 08:44:46;;;;;;;28.63;6.32;;;13.40;99.90;;;13.53;100.00;100543.50;5007785;28;20304;-68
2022/09/25 08:50:42;;;;;;;38.15;9.30;;;13.60;99.90;;;13.59;100.00;100546.16;5007904;28;20654;-67
2022/09/25 08:53:23;;;;;;;32.25;6.97;;;13.70;99.90;;;13.53;100.00;100524.03;4997699;28;20235;-73
2022/09/25 08:56:14;;;;;;;34.40;7.53;;;13.70;99.90;;;13.88;100.00;100534.59;4972979;28;20678;-68
2022/09/25 08:59:03;;;;;;;33.20;7.78;;;13.80;99.90;;;13.90;100.00;100531.03;4982034;28;20965;-68
2022/09/25 09:01:54;;;;;;;26.38;5.80;;;13.90;99.90;;;13.88;100.00;100524.84;5009808;28;20246;-68
2022/09/25 09:04:40;;;;;;;32.92;7.07;;;13.90;99.90;;;13.98;100.00;100520.38;4990706;28;20234;-68
2022/09/25 09:12:20;;;;;;;38.13;8.70;;;14.00;99.90;;;13.94;100.00;100524.81;5011918;28;20229;-67
2022/09/25 09:15:21;;;;;;;27.70;6.00;;;14.10;99.90;;;13.99;100.00;100515.03;5004061;28;20231;-68
2022/09/25 09:17:52;;;;;;;26.30;5.95;;;14.10;99.90;;;14.02;100.00;100525.66;4984637;28;20659;-67
2022/09/25 09:20:47;;;;;;;27.48;5.95;;;13.80;99.90;;;14.10;100.00;100534.50;4975236;28;20215;-67
2022/09/25 09:23:33;;;;;;;26.17;5.75;;;14.20;99.90;;;14.07;100.00;100534.53;4985697;28;20234;-68
2022/09/25 09:26:20;;;;;;;25.52;5.82;;;14.20;99.90;;;14.16;100.00;100536.25;5027818;28;20664;-67
2022/09/25 09:29:03;;;;;;;22.98;5.07;;;14.20;99.90;;;14.08;100.00;100523.00;4991492;28;20210;-69
2022/09/25 09:32:19;;;;;;;25.23;5.70;;;14.30;99.90;;;14.14;100.00;100531.84;4995318;28;20203;-68
2022/09/25 09:35:27;;;;;;;27.38;6.05;;;14.30;99.90;;;14.04;100.00;100525.66;5007330;28;20771;-67
2022/09/25 09:38:22;;;;;;;34.60;7.38;;;14.30;99.90;;;13.97;100.00;100526.56;4986464;28;20673;-67
2022/09/25 09:41:11;;;;;;;20.05;4.88;;;14.20;99.90;;;14.09;100.00;100529.19;4990499;28;20214;-68
2022/09/25 09:43:55;;;;;;;23.67;5.68;;;14.20;99.90;;;14.16;100.00;100528.28;5024888;28;20238;-68
2022/09/25 09:46:48;;;;;;;34.90;9.10;;;14.20;99.90;;;14.05;100.00;100520.34;4993429;28;20657;-69
2022/09/25 09:49:50;;;;;;;23.17;5.72;;;14.20;99.90;;;14.13;100.00;100530.94;4989921;28;20227;-69
2022/09/25 09:52:29;;;;;;;22.55;5.65;;;14.20;99.90;;;14.07;100.00;100520.34;5002592;28;20682;-68
2022/09/25 09:55:44;;;;;;;25.13;6.03;;;14.20;99.90;;;14.17;100.00;100522.06;4998854;28;20595;-68
2022/09/25 09:58:53;;;;;;;28.80;7.50;;;14.20;99.90;;;14.17;100.00;100532.69;4948083;28;20208;-68
2022/09/25 10:01:28;;;;;;;17.88;5.45;;;14.30;99.90;;;14.27;100.00;100538.88;4946183;28;20227;-68
2022/09/25 10:04:26;;;;;;;17.98;5.38;;;14.30;99.90;;;14.24;100.00;100530.91;5001542;28;20219;-68
2022/09/25 10:07:04;;;;;;;17.30;5.10;;;14.40;99.90;;;14.38;100.00;100534.41;4976728;28;20217;-68
2022/09/25 10:09:36;;;;;;;22.45;6.60;;;14.50;99.90;;;14.35;100.00;100527.34;5003665;28;20218;-67
2022/09/25 10:12:20;;;;;;;16.70;5.13;;;14.50;99.90;;;14.28;100.00;100511.38;4995782;28;20210;-67
2022/09/25 10:14:50;;;;;;;17.02;5.25;;;14.50;99.90;;;14.14;100.00;100505.25;4993345;28;20234;-69
2022/09/25 10:17:39;;;;;;;25.65;6.57;;;14.40;99.90;;;14.15;100.00;100507.88;5011430;28;20212;-67
2022/09/25 10:21:13;;;;;;;21.58;6.43;;;14.30;99.90;;;14.17;100.00;100519.41;5017672;28;20215;-68
2022/09/25 10:24:05;;;;;;;15.88;5.28;;;14.40;99.90;;;14.23;100.00;100524.69;5014538;28;20241;-68
2022/09/25 10:26:39;;;;;;;17.15;5.05;;;14.30;99.90;;;14.24;100.00;100510.50;4994383;28;20670;-68
2022/09/25 10:29:07;;;;;;;18.80;5.93;;;14.40;99.90;;;14.26;100.00;100507.84;4981144;28;20211;-67
2022/09/25 10:31:42;;;;;;;30.50;7.20;;;14.40;99.90;;;14.25;100.00;100514.94;4982220;28;20322;-67
2022/09/25 10:34:11;;;;;;;31.65;7.18;;;14.40;99.90;;;14.33;100.00;100517.59;4984978;28;20860;-67
2022/09/25 10:36:48;;;;;;;26.77;6.53;;;14.50;99.90;;;14.24;100.00;100512.28;4994444;28;20211;-66
2022/09/25 10:39:33;;;;;;;19.55;4.78;;;14.40;99.90;;;14.22;100.00;100499.00;4997601;28;20223;-66
2022/09/25 10:42:41;;;;;;;16.95;5.03;;;14.40;99.90;;;14.28;100.00;100500.75;4986673;28;20222;-67
2022/09/25 10:45:35;;;;;;;14.98;4.78;;;14.40;99.90;;;14.40;100.00;100514.91;4998698;28;20202;-67
2022/09/25 10:51:20;;;;;;;17.60;5.28;;;14.50;99.90;;;14.37;100.00;100512.25;4990388;28;20207;-67
2022/09/25 10:54:10;;;;;;;26.30;7.70;;;14.40;99.90;;;14.45;100.00;100519.34;4980350;28;20234;-67
2022/09/25 10:56:39;;;;;;;27.55;6.20;;;14.50;99.90;;;14.37;100.00;100506.03;4985372;22;20203;-81
2022/09/25 10:59:19;;;;;;;10.98;3.17;;;14.50;99.90;;;14.54;100.00;100509.53;4997345;28;20227;-83